EST,Max TemperatureF,Mean TemperatureF,Min TemperatureF,Max Dew PointF,MeanDew PointF,Min DewpointF,Max Humidity, Mean Humidity, Min Humidity, Max Sea Level PressureIn, Mean Sea Level PressureIn, Min Sea Level PressureIn, Max VisibilityMiles, Mean VisibilityMiles, Min VisibilityMiles, Max Wind SpeedMPH, Mean Wind SpeedMPH, Max Gust SpeedMPH,PrecipitationIn, CloudCover, Events, WindDirDegrees
2012-11-1,,,,,,,,,,,,,15,12,10,7,2,,0.00,7,,293
2012-11-2,51,45,39,37,34,32,81,64,50,29.78,29.71,29.63,15,10,10,12,6,21,0.00,7,Rain,296
2012-11-3,48,44,39,34,32,30,75,67,54,29.97,29.84,29.77,20,10,10,17,7,22,0.00,5,,291
2012-11-4,46,42,37,34,31,28,81,68,53,30.01,29.98,29.95,10,10,10,12,6,18,0.00,6,Snow,321
2012-11-5,46,36,26,30,25,19,100,65,39,30.19,30.06,29.98,20,10,10,15,6,20,0.00,5,Snow,339
2012-11-6,42,32,21,25,22,16,100,82,34,30.25,30.17,30.09,10,10,10,6,1,,0.00,0,Snow,44
2012-11-7,39,36,32,34,27,21,100,77,56,30.08,29.93,29.80,10,6,0,18,9,31,0.00,5,Rain-Snow,19
2012-11-8,46,40,35,28,23,18,75,55,34,29.94,29.82,29.76,10,10,5,17,9,29,0.00,6,Snow,341
2012-11-9,53,42,32,32,27,23,100,65,30,30.21,30.08,29.95,10,10,10,18,8,30,0.00,0,,329
2012-11-10,53,42,30,39,34,28,100,89,54,30.43,30.31,30.21,10,9,7,8,1,,0.00,3,,246
2012-11-11,64,48,33,48,40,34,100,91,49,30.51,30.45,30.41,10,6,0,8,1,,0.00,4,Fog,208
2012-11-12,66,49,32,57,44,32,100,93,64,30.47,30.38,30.17,10,5,0,9,1,18,0.00,6,Fog,174
2012-11-13,62,48,35,59,42,27,100,81,57,30.46,30.28,30.13,10,9,2,13,6,25,0.00,6,Rain,331
2012-11-14,48,37,26,30,27,21,100,75,37,30.54,30.48,30.45,20,11,10,13,2,21,0.00,3,,16
2012-11-15,46,35,24,28,26,23,100,84,40,30.47,30.40,30.31,10,10,10,7,1,,0.00,2,,71
2012-11-16,48,37,24,30,27,23,100,84,40,30.45,30.35,30.30,15,10,10,14,1,,0.00,2,,58
2012-11-17,53,38,23,32,27,23,100,86,38,30.64,30.56,30.45,10,10,7,12,1,16,0.00,0,,66
2012-11-18,50,36,23,32,27,21,100,89,50,30.68,30.63,30.57,10,10,7,6,1,,0.00,2,,69
2012-11-19,50,37,24,36,29,25,100,91,54,30.57,30.43,30.26,10,9,4,9,1,16,0.00,1,,64
2012-11-20,50,37,24,34,29,25,100,86,47,30.25,30.18,30.12,10,10,2,5,0,,0.00,3,,125
2012-11-21,53,38,24,32,27,19,100,82,28,30.25,30.19,30.15,15,10,5,8,1,,0.00,0,,69
2012-11-22,55,39,23,37,29,23,100,89,44,30.28,30.22,30.15,10,10,7,4,0,,0.00,0,,300
2012-11-23,57,40,24,43,33,23,100,85,47,30.14,29.94,29.69,10,9,2,10,1,16,0.00,4,Fog,212
2012-11-24,73,53,33,41,23,12,87,53,10,29.86,29.77,29.69,10,10,7,18,9,32,0.00,3,,289
2012-11-25,41,36,32,23,19,14,69,54,41,29.97,29.91,29.86,20,11,10,17,10,28,0.00,4,,274
2012-11-26,48,36,24,25,22,18,100,64,30,30.26,30.09,29.96,10,10,8,16,6,28,0.00,2,,253
2012-11-27,33,30,26,34,30,25,100,94,75,30.30,30.25,30.22,10,7,0,6,1,,0.00,8,Snow,8
2012-11-28,39,32,24,32,27,21,100,81,49,30.29,30.23,30.19,10,10,10,14,3,20,0.00,4,,306
2012-11-29,42,32,23,27,24,21,100,78,49,30.36,30.31,30.29,10,10,10,13,4,20,0.00,2,,253
2012-11-30,44,34,23,32,27,21,100,84,49,30.45,30.38,30.32,10,8,5,7,1,,0.00,4,Fog,57